Time;durP1;ratioP1;P1;durP2;ratioP2;P2;SDS_P1;SDS_P2;PMS_P1;PMS_P2;Temp;Humidity;BMP_temperature;BMP_pressure;BME280_temperature;BME280_humidity;BME280_pressure;Samples;Min_cycle;Max_cycle;Signal;HPM_P1;HPM_P2
2023/08/01 00:01:19;;;;;;;15.90;12.30;;;;;;;17.65;100.00;100437.84;109894;1242;63462;-67
2023/08/01 00:03:48;;;;;;;15.40;11.60;;;;;;;17.58;100.00;100438.33;109939;1240;58604;-69
2023/08/01 00:06:17;;;;;;;12.80;10.90;;;;;;;17.51;100.00;100434.55;109999;1240;63550;-66
2023/08/01 00:08:46;;;;;;;15.70;12.80;;;;;;;17.44;100.00;100431.45;109898;1239;71370;-67
2023/08/01 00:11:16;;;;;;;15.30;13.70;;;;;;;17.42;100.00;100434.64;109761;1241;70009;-67
2023/08/01 00:13:44;;;;;;;17.50;13.40;;;;;;;17.36;100.00;100433.64;109792;1241;65163;-67
2023/08/01 00:16:13;;;;;;;14.90;12.90;;;;;;;17.31;100.00;100434.40;109815;1242;57793;-67
2023/08/01 00:18:42;;;;;;;18.00;13.50;;;;;;;17.27;100.00;100432.75;109910;1241;59098;-67
2023/08/01 00:21:11;;;;;;;16.60;13.10;;;;;;;17.27;100.00;100429.22;109867;1239;74674;-68
2023/08/01 00:23:40;;;;;;;15.60;13.00;;;;;;;17.25;100.00;100428.05;109856;1241;72636;-67
2023/08/01 00:26:08;;;;;;;15.80;13.70;;;;;;;17.39;100.00;100423.45;109832;1241;70866;-66
2023/08/01 00:28:37;;;;;;;15.40;13.20;;;;;;;17.66;100.00;100422.17;109969;1240;63589;-66
2023/08/01 00:31:10;;;;;;;16.00;12.70;;;;;;;17.83;100.00;100423.59;109765;1239;57750;-66
2023/08/01 00:33:40;;;;;;;15.50;11.70;;;;;;;17.79;100.00;100426.89;109564;1240;60203;-66
2023/08/01 00:36:11;;;;;;;13.70;12.30;;;;;;;17.67;100.00;100424.41;109782;1239;73487;-66
2023/08/01 00:38:41;;;;;;;16.00;12.70;;;;;;;17.57;100.00;100422.67;109864;1240;72330;-67
2023/08/01 00:41:10;;;;;;;14.50;12.60;;;;;;;17.44;100.00;100428.42;109746;1239;59465;-66
2023/08/01 00:43:39;;;;;;;15.50;12.00;;;;;;;17.37;100.00;100430.40;109729;1240;62441;-66
2023/08/01 00:46:08;;;;;;;18.00;13.40;;;;;;;17.30;100.00;100435.73;109773;1241;58477;-66
2023/08/01 00:48:37;;;;;;;15.50;13.80;;;;;;;17.26;100.00;100437.34;109625;1240;58279;-66
2023/08/01 00:51:09;;;;;;;17.50;13.80;;;;;;;17.21;100.00;100441.05;109757;1240;63531;-67
2023/08/01 00:53:39;;;;;;;16.60;14.20;;;;;;;17.15;100.00;100445.52;109667;1241;61517;-67
2023/08/01 00:56:08;;;;;;;16.10;14.50;;;;;;;17.12;100.00;100444.96;109487;1241;70442;-66
2023/08/01 00:58:36;;;;;;;17.10;15.00;;;;;;;17.15;100.00;100450.44;109710;1240;72848;-67
2023/08/01 01:01:05;;;;;;;18.10;15.10;;;;;;;17.17;100.00;100451.66;109780;1239;58322;-66
2023/08/01 01:03:34;;;;;;;18.60;14.80;;;;;;;17.22;100.00;100450.58;109965;1241;60806;-66
2023/08/01 01:06:21;;;;;;;22.00;15.60;;;;;;;17.19;100.00;100443.52;109758;1240;63272;-67
2023/08/01 01:08:50;;;;;;;21.20;15.60;;;;;;;17.26;100.00;100439.52;109784;1241;63315;-67
2023/08/01 01:11:19;;;;;;;19.90;13.80;;;;;;;17.33;100.00;100440.48;109827;1241;59856;-67
2023/08/01 01:13:48;;;;;;;17.00;14.50;;;;;;;17.37;100.00;100438.66;109988;1240;63627;-67
2023/08/01 01:16:17;;;;;;;14.50;11.90;;;;;;;17.41;100.00;100437.01;109789;1241;58349;-67
2023/08/01 01:18:45;;;;;;;14.30;12.80;;;;;;;17.36;100.00;100440.50;109827;1239;60471;-67
2023/08/01 01:21:14;;;;;;;17.00;13.60;;;;;;;17.26;100.00;100438.75;109741;1240;64719;-67
2023/08/01 01:23:44;;;;;;;15.80;14.00;;;;;;;17.19;100.00;100434.84;109749;1240;60685;-67
2023/08/01 01:26:16;;;;;;;18.50;14.30;;;;;;;17.26;100.00;100435.22;109716;1240;59957;-67
2023/08/01 01:28:48;;;;;;;17.40;14.70;;;;;;;17.29;100.00;100428.40;109721;1239;73881;-67
2023/08/01 01:31:17;;;;;;;17.00;14.00;;;;;;;17.35;100.00;100433.92;109601;1244;62207;-67
2023/08/01 01:33:46;;;;;;;15.50;13.80;;;;;;;17.33;100.00;100438.44;109681;1241;57785;-66
2023/08/01 01:36:15;;;;;;;16.20;14.30;;;;;;;17.23;100.00;100436.93;109954;1241;73873;-68
2023/08/01 01:38:43;;;;;;;17.90;13.00;;;;;;;17.13;100.00;100440.46;109831;1241;72794;-67
2023/08/01 01:41:12;;;;;;;22.50;13.00;;;;;;;17.04;100.00;100435.12;109816;1240;59915;-67
2023/08/01 01:43:41;;;;;;;20.60;13.90;;;;;;;17.06;100.00;100435.21;109788;1240;63038;-66
2023/08/01 01:46:10;;;;;;;16.90;14.50;;;;;;;17.10;100.00;100439.73;109758;1242;62728;-66
2023/08/01 01:48:39;;;;;;;16.70;14.00;;;;;;;17.10;100.00;100442.20;109973;1239;61396;-67
2023/08/01 01:51:08;;;;;;;15.60;13.70;;;;;;;17.05;100.00;100440.27;109810;1239;73265;-67
2023/08/01 01:53:36;;;;;;;16.20;13.60;;;;;;;17.00;100.00;100441.33;109823;1240;71871;-67
2023/08/01 01:56:05;;;;;;;16.00;13.90;;;;;;;17.00;100.00;100441.70;109853;1239;59751;-67
2023/08/01 01:58:34;;;;;;;16.50;14.20;;;;;;;17.17;100.00;100440.05;109805;1242;73109;-67
2023/08/01 02:01:02;;;;;;;18.20;13.80;;;;;;;17.23;100.00;100442.77;109823;1240;62393;-67
2023/08/01 02:03:31;;;;;;;17.50;15.20;;;;;;;17.29;100.00;100446.18;109968;1241;61295;-66
2023/08/01 02:06:00;;;;;;;17.50;15.20;;;;;;;17.27;100.00;100447.70;109809;1241;62736;-66
2023/08/01 02:08:32;;;;;;;16.90;14.50;;;;;;;17.23;100.00;100450.48;109951;1240;61582;-67
2023/08/01 02:11:01;;;;;;;14.90;13.30;;;;;;;17.15;100.00;100451.39;109754;1242;59777;-67
2023/08/01 02:13:32;;;;;;;17.90;14.10;;;;;;;17.10;100.00;100457.14;109903;1242;63176;-67
2023/08/01 02:16:02;;;;;;;;;;;;;;;17.05;100.00;100464.02;109701;1244;62919;-67
2023/08/01 02:18:31;;;;;;;18.00;15.00;;;;;;;17.09;100.00;100467.96;109941;1241;58364;-66
2023/08/01 02:21:00;;;;;;;16.00;12.90;;;;;;;17.23;100.00;100469.00;109814;1240;62824;-67
2023/08/01 02:23:29;;;;;;;23.50;14.30;;;;;;;17.30;100.00;100473.02;109797;1242;61480;-66
2023/08/01 02:25:58;;;;;;;15.40;13.20;;;;;;;17.38;100.00;100464.83;109766;1241;70954;-68
2023/08/01 02:28:26;;;;;;;15.90;12.90;;;;;;;17.42;100.00;100470.21;109635;1240;74069;-67
2023/08/01 02:30:56;;;;;;;15.20;13.60;;;;;;;17.45;100.00;100466.55;109615;1242;58374;-68
2023/08/01 02:33:25;;;;;;;18.00;14.60;;;;;;;17.56;100.00;100465.36;109544;1241;57847;-67
2023/08/01 02:35:54;;;;;;;16.50;13.80;;;;;;;17.63;100.00;100467.80;109638;1241;71635;-66
2023/08/01 02:38:22;;;;;;;16.50;12.40;;;;;;;17.58;100.00;100473.95;109592;1240;73079;-68
2023/08/01 02:40:51;;;;;;;15.90;13.20;;;;;;;17.54;100.00;100475.79;109621;1239;69828;-67
2023/08/01 02:43:20;;;;;;;15.30;12.90;;;;;;;17.50;100.00;100477.39;109599;1241;63509;-67
2023/08/01 02:45:49;;;;;;;17.10;12.90;;;;;;;17.38;100.00;100475.12;109573;1242;62121;-67
2023/08/01 02:48:18;;;;;;;14.10;12.30;;;;;;;17.23;100.00;100481.17;109673;1240;61748;-67
2023/08/01 02:50:48;;;;;;;14.30;11.50;;;;;;;17.10;100.00;100481.48;109644;1241;63233;-67
2023/08/01 02:53:16;;;;;;;15.40;11.70;;;;;;;16.97;100.00;100475.36;109839;1239;71930;-66
2023/08/01 02:55:48;;;;;;;15.50;13.70;;;;;;;16.93;100.00;100467.89;109820;1239;59834;-67
2023/08/01 02:58:16;;;;;;;17.80;14.40;;;;;;;17.11;100.00;100468.27;109795;1240;73726;-66
2023/08/01 03:00:47;;;;;;;16.30;13.00;;;;;;;17.22;100.00;100474.38;109760;1242;58312;-65
2023/08/01 03:03:16;;;;;;;17.40;13.10;;;;;;;17.20;100.00;100476.54;109948;1241;60009;-67
2023/08/01 03:05:44;;;;;;;14.20;12.70;;;;;;;17.14;100.00;100473.95;109804;1241;74332;-67
2023/08/01 03:08:13;;;;;;;19.80;12.70;;;;;;;17.07;100.00;100473.16;109822;1240;63500;-66
2023/08/01 03:10:42;;;;;;;16.70;12.60;;;;;;;16.95;100.00;100472.24;109817;1240;59770;-67
2023/08/01 03:13:11;;;;;;;18.80;13.10;;;;;;;16.81;100.00;100472.11;109810;1242;62278;-67
2023/08/01 03:15:40;;;;;;;17.30;13.10;;;;;;;16.90;100.00;100470.31;109895;1241;63517;-67
2023/08/01 03:18:08;;;;;;;17.00;13.20;;;;;;;16.97;100.00;100469.20;109905;1240;61950;-67
2023/08/01 03:20:37;;;;;;;18.00;14.10;;;;;;;16.96;100.00;100473.91;109984;1241;63531;-67
2023/08/01 03:23:06;;;;;;;15.90;13.10;;;;;;;16.90;100.00;100473.41;109937;1241;61399;-67
2023/08/01 03:25:35;;;;;;;18.90;15.10;;;;;;;16.82;100.00;100473.92;109841;1242;58966;-67
2023/08/01 03:28:05;;;;;;;21.10;15.70;;;;;;;16.78;100.00;100475.89;109932;1241;71879;-67
2023/08/01 03:30:34;;;;;;;17.30;14.20;;;;;;;16.85;100.00;100480.54;109706;1244;61656;-67
2023/08/01 03:33:03;;;;;;;17.70;15.60;;;;;;;16.86;100.00;100481.25;109830;1239;58366;-67
2023/08/01 03:35:32;;;;;;;16.50;14.80;;;;;;;16.91;100.00;100479.55;109763;1244;63190;-68
2023/08/01 03:38:01;;;;;;;19.00;15.20;;;;;;;16.93;100.00;100476.13;109824;1241;70709;-68
2023/08/01 03:40:30;;;;;;;19.50;15.30;;;;;;;17.17;100.00;100474.42;109823;1241;69827;-67
2023/08/01 03:42:59;;;;;;;25.00;16.70;;;;;;;17.34;100.00;100467.98;109693;1241;64644;-66
2023/08/01 03:45:28;;;;;;;21.10;16.00;;;;;;;17.51;100.00;100457.42;109790;1242;58329;-67
2023/08/01 03:47:57;;;;;;;22.90;15.20;;;;;;;17.65;100.00;100456.70;109822;1240;59648;-67
2023/08/01 03:50:26;;;;;;;24.00;17.00;;;;;;;17.74;100.00;100454.95;109814;1241;67382;-67
2023/08/01 03:52:55;;;;;;;21.50;16.30;;;;;;;17.63;100.00;100455.98;109928;1241;71889;-67
2023/08/01 03:55:23;;;;;;;19.10;14.10;;;;;;;17.60;100.00;100454.91;109773;1242;70690;-67
2023/08/01 03:57:52;;;;;;;18.20;14.60;;;;;;;17.65;100.00;100460.20;109665;1240;63287;-67
2023/08/01 04:00:21;;;;;;;17.40;15.50;;;;;;;17.70;100.00;100460.70;109930;1242;58336;-66
2023/08/01 04:02:50;;;;;;;17.90;15.40;;;;;;;17.67;100.00;100463.11;109814;1240;60007;-74
2023/08/01 04:05:19;;;;;;;16.70;15.00;;;;;;;17.66;100.00;100460.60;109866;1241;74800;-74
2023/08/01 04:07:47;;;;;;;20.20;15.40;;;;;;;17.67;100.00;100457.66;109894;1241;73075;-77
2023/08/01 04:10:16;;;;;;;20.50;16.50;;;;;;;17.72;100.00;100456.56;109814;1242;60526;-80
2023/08/01 04:12:45;;;;;;;19.00;15.70;;;;;;;17.80;100.00;100457.86;109948;1242;63089;-76
2023/08/01 04:15:14;;;;;;;17.10;15.40;;;;;;;17.92;100.00;100463.13;109938;1242;61935;-77
2023/08/01 04:17:43;;;;;;;17.60;15.80;;;;;;;17.99;100.00;100461.95;109968;1239;57681;-78
2023/08/01 04:20:12;;;;;;;17.20;15.40;;;;;;;18.06;100.00;100460.77;109819;1241;62969;-76
2023/08/01 04:22:41;;;;;;;16.50;14.80;;;;;;;18.11;100.00;100460.00;109968;1242;61550;-75
2023/08/01 04:25:10;;;;;;;19.00;15.50;;;;;;;18.18;100.00;100456.95;109978;1242;68715;-73
2023/08/01 04:27:38;;;;;;;17.30;15.20;;;;;;;18.19;100.00;100459.42;109777;1241;74193;-76
2023/08/01 04:30:08;;;;;;;19.20;15.40;;;;;;;18.27;100.00;100460.85;109915;1242;58466;-75
2023/08/01 04:32:36;;;;;;;15.50;13.90;;;;;;;18.43;100.00;100462.55;109947;1242;60171;-76
2023/08/01 04:35:05;;;;;;;15.50;13.90;;;;;;;18.60;100.00;100469.01;109837;1242;64116;-75
2023/08/01 04:37:34;;;;;;;17.40;14.60;;;;;;;18.67;100.00;100470.47;109835;1242;61595;-74
2023/08/01 04:40:03;;;;;;;18.30;15.10;;;;;;;18.74;100.00;100467.41;109784;1241;70109;-68
2023/08/01 04:42:32;;;;;;;15.90;11.90;;;;;;;18.82;100.00;100471.09;109847;1242;72107;-69
2023/08/01 04:45:01;;;;;;;17.20;12.60;;;;;;;18.99;100.00;100475.95;109839;1242;63182;-67
2023/08/01 04:47:29;;;;;;;18.00;14.30;;;;;;;18.99;100.00;100480.89;109832;1242;60767;-70
2023/08/01 04:49:58;;;;;;;18.30;14.50;;;;;;;18.86;100.00;100482.77;109882;1242;63333;-70
2023/08/01 04:52:27;;;;;;;19.20;14.30;;;;;;;18.88;100.00;100486.06;109826;1242;60834;-72
2023/08/01 04:54:55;;;;;;;17.50;14.70;;;;;;;18.96;100.00;100481.34;109755;1241;70294;-68
2023/08/01 04:57:24;;;;;;;19.80;14.90;;;;;;;19.11;100.00;100480.98;109788;1242;62814;-70
2023/08/01 04:59:53;;;;;;;20.40;14.60;;;;;;;19.14;100.00;100480.52;109808;1242;57789;-68
2023/08/01 05:02:22;;;;;;;22.00;14.70;;;;;;;19.24;100.00;100476.85;109783;1241;60402;-67
2023/08/01 05:04:52;;;;;;;19.10;14.90;;;;;;;19.32;100.00;100478.04;109807;1241;74735;-76
2023/08/01 05:07:20;;;;;;;18.20;14.40;;;;;;;19.48;100.00;100487.03;109640;1246;62701;-76
2023/08/01 05:09:49;;;;;;;21.70;16.40;;;;;;;19.60;100.00;100486.19;109749;1243;59648;-77
2023/08/01 05:12:18;;;;;;;21.30;15.40;;;;;;;19.51;100.00;100485.63;109649;1244;62306;-76
2023/08/01 05:14:47;;;;;;;18.40;14.40;;;;;;;19.59;100.00;100486.13;109610;1242;62128;-80
2023/08/01 05:17:15;;;;;;;23.40;15.10;;;;;;;19.72;100.00;100480.42;109610;1244;61347;-77
2023/08/01 05:19:44;;;;;;;21.60;14.70;;;;;;;19.84;100.00;100484.16;109549;1245;63948;-76
2023/08/01 05:22:13;;;;;;;19.80;15.30;;;;;;;19.98;100.00;100491.84;109357;1245;60939;-68
2023/08/01 05:24:43;;;;;;;19.80;15.90;;;;;;;20.09;100.00;100496.66;109615;1242;69479;-65
2023/08/01 05:27:12;;;;;;;21.10;15.70;;;;;;;20.19;100.00;100501.98;109508;1245;73568;-69
2023/08/01 05:29:41;;;;;;;17.70;13.50;;;;;;;20.29;100.00;100503.30;109603;1241;63436;-67
2023/08/01 05:32:10;;;;;;;19.40;14.70;;;;;;;20.53;100.00;100504.23;109586;1241;61188;-68
2023/08/01 05:34:39;;;;;;;18.00;15.50;;;;;;;20.60;100.00;100510.66;109581;1241;74108;-69
2023/08/01 05:37:08;;;;;;;18.10;13.50;;;;;;;20.45;100.00;100518.30;109540;1242;72482;-68
2023/08/01 05:39:37;;;;;;;19.70;14.30;;;;;;;20.37;100.00;100519.33;109665;1242;60029;-69
2023/08/01 05:42:08;;;;;;;22.40;15.00;;;;;;;20.26;100.00;100517.48;109656;1242;71956;-68
2023/08/01 05:44:37;;;;;;;18.00;14.00;;;;;;;20.21;100.00;100515.09;109700;1240;58650;-69
2023/08/01 05:47:06;;;;;;;22.60;13.40;;;;;;;20.37;100.00;100515.82;109839;1241;60975;-69
2023/08/01 05:49:34;;;;;;;21.20;12.60;;;;;;;20.29;100.00;100515.25;109688;1242;74527;-69
2023/08/01 05:52:04;;;;;;;14.60;12.10;;;;;;;20.47;100.00;100510.70;109861;1239;61881;-67
2023/08/01 05:54:33;;;;;;;14.40;12.90;;;;;;;20.57;100.00;100508.24;109830;1239;69851;-70
2023/08/01 05:57:01;;;;;;;14.10;11.30;;;;;;;20.64;100.00;100514.45;109848;1242;62721;-68
2023/08/01 05:59:30;;;;;;;15.80;11.00;;;;;;;20.88;100.00;100511.80;109884;1241;57787;-68
2023/08/01 06:01:59;;;;;;;15.00;13.00;;;;;;;21.00;100.00;100511.69;109945;1241;57737;-68
2023/08/01 06:04:28;;;;;;;15.80;13.60;;;;;;;20.96;100.00;100509.19;109902;1239;73503;-68
2023/08/01 06:06:57;;;;;;;14.30;12.80;;;;;;;21.04;100.00;100507.98;109766;1241;73295;-68
2023/08/01 06:09:26;;;;;;;15.50;12.90;;;;;;;21.19;100.00;100507.45;109931;1242;70864;-68
2023/08/01 06:11:54;;;;;;;18.70;15.20;;;;;;;21.37;100.00;100501.94;109862;1240;73792;-68
2023/08/01 06:14:23;;;;;;;17.60;15.50;;;;;;;21.35;100.00;100503.06;109894;1240;58323;-68
2023/08/01 06:16:52;;;;;;;18.30;15.80;;;;;;;21.33;100.00;100502.06;109751;1240;57748;-68
2023/08/01 06:19:21;;;;;;;18.10;15.90;;;;;;;21.33;100.00;100498.54;109905;1241;63601;-68
2023/08/01 06:21:50;;;;;;;19.50;17.20;;;;;;;21.44;100.00;100499.41;109845;1241;72071;-68
2023/08/01 06:24:18;;;;;;;20.10;16.00;;;;;;;21.54;100.00;100501.03;109627;1241;70987;-67
2023/08/01 06:26:47;;;;;;;19.50;16.60;;;;;;;21.76;100.00;100497.39;109773;1239;63388;-69
2023/08/01 06:29:16;;;;;;;19.80;17.70;;;;;;;21.65;100.00;100503.12;109906;1242;58256;-68
2023/08/01 06:31:44;;;;;;;21.10;17.50;;;;;;;21.61;100.00;100504.39;109891;1241;60985;-67
2023/08/01 06:34:13;;;;;;;17.90;15.00;;;;;;;21.79;100.00;100505.15;109880;1241;65103;-67
2023/08/01 06:36:42;;;;;;;20.90;16.40;;;;;;;21.87;100.00;100502.29;109908;1240;60785;-69
2023/08/01 06:39:11;;;;;;;21.10;16.60;;;;;;;21.86;100.00;100498.68;109881;1241;70217;-70
2023/08/01 06:41:39;;;;;;;21.00;15.80;;;;;;;21.74;100.00;100505.40;109834;1241;73311;-68
2023/08/01 06:44:08;;;;;;;21.00;16.80;;;;;;;21.96;100.00;100498.81;109668;1241;58302;-68
2023/08/01 06:46:37;;;;;;;24.50;17.60;;;;;;;22.09;100.00;100499.92;109802;1240;58280;-69
2023/08/01 06:49:06;;;;;;;24.10;16.70;;;;;;;22.27;100.00;100500.22;109774;1242;63742;-68
2023/08/01 06:51:35;;;;;;;22.10;17.20;;;;;;;22.52;100.00;100498.41;109903;1239;60757;-68
2023/08/01 06:54:04;;;;;;;19.40;15.90;;;;;;;22.54;100.00;100499.45;109902;1241;70510;-68
2023/08/01 06:56:32;;;;;;;19.30;15.10;;;;;;;22.41;100.00;100500.14;109821;1241;65351;-68
2023/08/01 06:59:01;;;;;;;18.30;15.20;;;;;;;22.44;100.00;100502.00;109655;1244;57765;-68
2023/08/01 07:01:30;;;;;;;20.90;15.00;;;;;;;22.52;100.00;100501.40;109731;1241;59662;-68
2023/08/01 07:03:59;;;;;;;19.00;15.60;;;;;;;22.56;100.00;100499.63;109814;1241;64043;-69
2023/08/01 07:06:28;;;;;;;17.70;15.20;;;;;;;22.74;100.00;100497.00;109840;1241;69879;-68
2023/08/01 07:08:57;;;;;;;18.80;14.40;;;;;;;22.96;100.00;100492.05;109724;1241;70794;-68
2023/08/01 07:11:26;;;;;;;18.90;15.20;;;;;;;23.31;100.00;100489.30;109781;1241;71768;-68
2023/08/01 07:13:54;;;;;;;20.50;15.90;;;;;;;23.44;100.00;100487.57;109805;1242;62914;-68
2023/08/01 07:16:23;;;;;;;16.70;14.50;;;;;;;23.59;100.00;100486.89;109849;1240;57776;-68
2023/08/01 07:18:52;;;;;;;16.80;14.40;;;;;;;23.78;100.00;100486.22;109792;1240;64009;-68
2023/08/01 07:21:21;;;;;;;16.90;14.10;;;;;;;23.54;100.00;100483.83;109783;1242;71002;-68
2023/08/01 07:23:49;;;;;;;18.00;15.80;;;;;;;23.11;100.00;100485.02;109845;1239;70006;-69
2023/08/01 07:26:18;;;;;;;18.50;15.40;;;;;;;23.02;100.00;100481.79;109708;1240;65238;-68
2023/08/01 07:28:47;;;;;;;18.20;15.10;;;;;;;23.20;100.00;100469.81;109819;1241;57770;-67
2023/08/01 07:31:16;;;;;;;17.00;15.20;;;;;;;22.98;100.00;100475.23;109881;1241;57636;-68
2023/08/01 07:33:45;;;;;;;17.00;14.10;;;;;;;22.93;100.00;100474.48;109833;1241;62931;-68
2023/08/01 07:36:14;;;;;;;18.70;14.60;;;;;;;23.14;100.00;100475.36;109737;1240;72499;-69
2023/08/01 07:38:42;;;;;;;17.60;15.50;;;;;;;22.95;100.00;100473.73;109589;1240;69840;-68
2023/08/01 07:41:11;;;;;;;17.20;15.10;;;;;;;23.01;100.00;100473.30;109580;1240;63743;-69
2023/08/01 07:43:40;;;;;;;17.60;15.70;;;;;;;23.16;100.00;100472.75;109564;1240;62831;-69
2023/08/01 07:46:09;;;;;;;17.30;14.90;;;;;;;23.31;100.00;100469.36;109588;1240;61413;-68
2023/08/01 07:48:39;;;;;;;17.20;15.40;;;;;;;23.40;100.00;100468.90;109481;1241;75300;-68
2023/08/01 07:51:07;;;;;;;18.20;15.60;;;;;;;23.50;100.00;100465.41;109687;1240;69949;-68
2023/08/01 07:53:36;;;;;;;20.90;15.10;;;;;;;23.42;100.00;100456.85;109696;1240;60221;-68
2023/08/01 07:56:07;;;;;;;18.90;15.00;;;;;;;23.47;100.00;100452.00;109643;1241;73800;-64
2023/08/01 07:58:36;;;;;;;17.10;14.50;;;;;;;23.56;100.00;100451.81;109349;1242;373867;-64
2023/08/01 08:01:06;;;;;;;16.00;13.30;;;;;;;23.51;100.00;100454.53;109824;1240;61614;-63
2023/08/01 08:03:35;;;;;;;16.00;13.50;;;;;;;23.71;100.00;100450.98;109700;1241;64145;-64
2023/08/01 08:06:05;;;;;;;17.30;14.20;;;;;;;23.81;100.00;100451.13;109757;1241;62558;-64
2023/08/01 08:08:34;;;;;;;19.60;14.90;;;;;;;24.11;100.00;100455.64;109863;1241;70083;-65
2023/08/01 08:11:03;;;;;;;20.20;15.40;;;;;;;23.80;100.00;100451.74;109820;1240;74017;-64
2023/08/01 08:13:32;;;;;;;15.30;13.10;;;;;;;23.77;100.00;100450.30;109735;1242;57807;-68
2023/08/01 08:16:01;;;;;;;16.30;13.30;;;;;;;24.08;100.00;100448.10;109886;1240;57741;-66
2023/08/01 08:18:30;;;;;;;17.20;13.90;;;;;;;24.22;100.00;100449.26;109643;1241;63717;-68
2023/08/01 08:20:58;;;;;;;20.40;13.70;;;;;;;24.15;100.00;100448.23;109870;1241;72161;-67
2023/08/01 08:23:27;;;;;;;16.60;13.70;;;;;;;24.20;100.00;100447.49;109828;1241;60134;-68
2023/08/01 08:25:56;;;;;;;15.50;13.10;;;;;;;24.31;100.00;100442.77;109816;1240;62345;-68
2023/08/01 08:28:33;;;;;;;19.10;13.40;;;;;;;24.35;100.00;100447.95;109786;1240;61572;-68
2023/08/01 08:31:03;;;;;;;15.30;12.40;;;;;;;24.51;100.00;100440.54;109684;1241;61076;-65
2023/08/01 08:33:32;;;;;;;17.40;12.20;;;;;;;24.75;100.00;100436.88;109753;1241;74817;-67
2023/08/01 08:36:00;;;;;;;15.80;12.70;;;;;;;24.87;100.00;100428.04;109859;1241;63765;-69
2023/08/01 08:38:29;;;;;;;16.50;11.80;;;;;;;24.73;100.00;100427.30;109815;1241;60453;-68
2023/08/01 08:41:11;;;;;;;12.90;11.60;;;;;;;24.89;100.00;100423.55;109862;1241;62454;-68
2023/08/01 08:43:41;;;;;;;13.10;11.00;;;;;;;25.07;100.00;100423.58;109858;1241;60470;-67
2023/08/01 08:46:12;;;;;;;13.30;10.90;;;;;;;25.26;100.00;100422.46;109669;1240;58201;-65
2023/08/01 08:48:41;;;;;;;13.50;10.00;;;;;;;25.24;100.00;100418.53;109641;1239;72583;-68
2023/08/01 08:51:11;;;;;;;14.00;10.90;;;;;;;25.25;100.00;100413.91;109592;1241;61382;-68
2023/08/01 08:53:42;;;;;;;11.80;9.80;;;;;;;25.18;100.00;100407.78;109525;1239;60459;-67
2023/08/01 08:56:11;;;;;;;11.60;10.20;;;;;;;25.29;100.00;100402.63;109593;1241;64037;-68
2023/08/01 08:58:41;;;;;;;13.30;10.20;;;;;;;25.52;100.00;100406.56;109608;1241;60281;-68
2023/08/01 09:01:10;;;;;;;11.90;10.60;;;;;;;25.71;100.00;100404.13;109603;1240;58307;-67
2023/08/01 09:03:39;;;;;;;11.70;10.20;;;;;;;25.88;100.00;100398.25;109716;1241;74756;-67
2023/08/01 09:06:17;;;;;;;11.20;10.10;;;;;;;26.00;100.00;100395.80;109567;1242;72020;-68
2023/08/01 09:09:04;;;;;;;11.70;9.20;;;;;;;26.12;100.00;100391.90;109572;1241;61480;-67
2023/08/01 09:11:46;;;;;;;13.80;9.10;;;;;;;26.30;100.00;100386.38;109626;1241;63191;-68
2023/08/01 09:14:16;;;;;;;12.70;7.10;;;;;;;26.23;100.00;100385.24;109677;1241;58348;-68
2023/08/01 09:16:47;;;;;;;8.00;7.10;;;;;;;26.39;100.00;100389.88;109632;1240;58389;-66
2023/08/01 09:19:21;;;;;;;8.50;7.20;;;;;;;26.27;100.00;100388.58;109599;1244;63736;-67
2023/08/01 09:21:51;;;;;;;10.30;7.60;;;;;;;26.17;100.00;100390.90;109601;1243;60774;-68
2023/08/01 09:24:21;;;;;;;9.90;7.20;;;;;;;26.42;100.00;100389.69;109679;1242;70277;-69
2023/08/01 09:26:50;;;;;;;8.90;7.70;;;;;;;26.73;100.00;100388.69;109487;1241;74277;-67
2023/08/01 09:29:20;;;;;;;7.20;5.90;;;;;;;26.74;100.00;100384.22;109719;1241;59061;-67
2023/08/01 09:31:50;;;;;;;8.20;7.20;;;;;;;26.94;100.00;100383.09;109804;1240;57866;-66
2023/08/01 09:34:22;;;;;;;8.70;6.90;;;;;;;27.04;100.00;100379.69;109984;1240;65535;-66
2023/08/01 09:36:56;;;;;;;;;;;;;;;27.09;100.00;100379.73;109645;1241;63522;-67
2023/08/01 09:39:26;;;;;;;8.00;6.10;;;;;;;27.32;100.00;100375.35;109708;1240;70204;-68
2023/08/01 09:41:59;;;;;;;6.80;5.10;;;;;;;27.29;99.20;100375.71;109909;1240;65185;-66
2023/08/01 09:44:29;;;;;;;4.80;4.10;;;;;;;27.45;93.47;100367.81;109592;1244;58423;-67
2023/08/01 09:47:04;;;;;;;6.70;4.70;;;;;;;27.57;84.08;100362.75;109873;1240;57799;-66
2023/08/01 09:49:34;;;;;;;5.10;4.20;;;;;;;27.66;85.66;100365.70;109838;1241;64929;-66
2023/08/01 09:52:03;;;;;;;5.30;3.50;;;;;;;27.88;85.42;100365.09;109794;1241;62671;-67
2023/08/01 09:54:32;;;;;;;3.40;2.70;;;;;;;28.03;79.61;100360.59;109900;1241;59657;-68
2023/08/01 09:57:04;;;;;;;5.70;3.50;;;;;;;28.06;74.89;100355.00;109856;1241;62433;-68
2023/08/01 09:59:33;;;;;;;5.60;3.50;;;;;;;28.32;79.93;100353.05;109712;1241;58459;-66
2023/08/01 10:02:04;;;;;;;5.50;3.90;;;;;;;28.37;79.11;100349.75;109695;1240;57652;-64
2023/08/01 10:04:36;;;;;;;4.40;3.30;;;;;;;28.39;80.86;100343.55;109817;1241;63614;-65
2023/08/01 10:07:18;;;;;;;6.20;2.90;;;;;;;28.21;78.60;100335.20;109783;1240;62463;-65
2023/08/01 10:09:47;;;;;;;8.30;3.50;;;;;;;28.17;75.18;100333.58;109592;1241;60980;-66
2023/08/01 10:12:20;;;;;;;5.40;3.40;;;;;;;28.20;77.26;100330.50;109497;1240;73359;-66
2023/08/01 10:14:50;;;;;;;8.60;3.90;;;;;;;28.29;76.52;100332.33;109547;1244;61578;-67
2023/08/01 10:17:21;;;;;;;6.60;3.60;;;;;;;28.24;76.59;100329.13;109576;1241;58312;-68
2023/08/01 10:19:51;;;;;;;6.20;4.20;;;;;;;28.37;77.36;100327.75;109541;1239;63497;-68
2023/08/01 10:22:20;;;;;;;5.20;4.00;;;;;;;28.46;77.19;100323.45;109653;1240;63154;-69
2023/08/01 10:24:50;;;;;;;5.60;4.00;;;;;;;28.28;76.07;100322.03;109702;1241;60245;-71
2023/08/01 10:27:21;;;;;;;5.20;3.70;;;;;;;28.15;74.60;100318.42;109655;1244;63823;-68
2023/08/01 10:30:00;;;;;;;5.80;3.90;;;;;;;28.10;75.92;100317.79;109763;1242;58266;-67
2023/08/01 10:32:37;;;;;;;6.30;4.30;;;;;;;28.45;75.94;100317.79;109783;1241;57749;-68
2023/08/01 10:35:07;;;;;;;5.70;4.30;;;;;;;28.85;74.66;100314.22;109473;1245;64143;-67
2023/08/01 10:37:48;;;;;;;5.80;3.50;;;;;;;29.05;72.26;100311.46;109727;1241;61649;-65
2023/08/01 10:40:17;;;;;;;7.00;4.30;;;;;;;29.82;67.78;100310.30;109617;1241;60168;-72
2023/08/01 10:42:50;;;;;;;6.50;4.10;;;;;;;29.89;65.93;100308.54;109691;1240;62980;-73
2023/08/01 10:45:24;;;;;;;4.80;2.90;;;;;;;30.35;64.36;100309.95;109810;1242;59022;-67
2023/08/01 10:48:10;;;;;;;4.40;3.10;;;;;;;30.96;60.46;100306.41;109743;1240;60383;-70
2023/08/01 10:50:40;;;;;;;5.70;3.50;;;;;;;31.10;59.88;100305.30;109640;1244;63569;-70
2023/08/01 10:53:10;;;;;;;4.60;3.20;;;;;;;31.44;59.83;100304.15;109712;1241;72396;-71
2023/08/01 10:55:46;;;;;;;4.20;3.10;;;;;;;31.36;60.24;100299.81;109561;1242;60644;-71
2023/08/01 10:58:15;;;;;;;4.60;3.10;;;;;;;31.40;60.49;100304.83;109641;1241;64795;-73
2023/08/01 11:00:45;;;;;;;4.40;3.10;;;;;;;31.17;59.98;100296.34;109544;1243;59526;-73
2023/08/01 11:03:15;;;;;;;4.00;3.30;;;;;;;31.51;60.06;100297.06;109594;1243;58350;-72
2023/08/01 11:05:44;;;;;;;4.50;3.00;;;;;;;31.61;58.69;100296.16;109733;1241;74430;-72
2023/08/01 11:08:12;;;;;;;5.20;3.20;;;;;;;32.14;58.14;100296.06;109649;1240;71649;-72